Time;durP1;ratioP1;P1;durP2;ratioP2;P2;SDS_P1;SDS_P2;PMS_P1;PMS_P2;Temp;Humidity;BMP_temperature;BMP_pressure;BME280_temperature;BME280_humidity;BME280_pressure;Samples;Min_cycle;Max_cycle;Signal;HPM_P1;HPM_P2
2021/12/09 00:02:19;;;;;;;2.53;1.05;;;;;;;13.97;56.38;95114.19;5031934;28;20030;-24
2021/12/09 00:04:45;;;;;;;2.75;1.00;;;;;;;13.94;56.36;95120.63;5032002;28;20036;-23
2021/12/09 00:07:11;;;;;;;6.10;0.93;;;;;;;13.79;57.20;95128.16;5031758;28;20245;-24
2021/12/09 00:09:37;;;;;;;4.85;1.05;;;;;;;13.76;56.73;95120.91;5030435;28;20056;-24
2021/12/09 00:12:02;;;;;;;3.20;1.10;;;;;;;13.85;56.71;95133.63;5022095;28;20029;-24
2021/12/09 00:14:31;;;;;;;3.97;1.08;;;;;;;13.82;56.81;95138.09;5030457;28;20067;-24
2021/12/09 00:17:00;;;;;;;3.95;1.13;;;;;;;13.71;57.38;95135.25;5033717;28;20396;-24
2021/12/09 00:19:26;;;;;;;3.05;0.82;;;;;;;13.76;56.87;95134.53;5033850;28;20100;-24
2021/12/09 00:21:52;;;;;;;1.70;0.50;;;;;;;13.74;56.96;95142.44;5033693;28;20033;-24
2021/12/09 00:24:17;;;;;;;3.58;0.73;;;;;;;13.76;56.82;95134.53;5033730;28;20428;-24
2021/12/09 00:26:46;;;;;;;2.22;0.70;;;;;;;13.77;56.71;95148.91;5033754;28;20030;-24
2021/12/09 00:29:13;;;;;;;4.25;0.98;;;;;;;13.65;56.92;95146.06;5033585;28;20040;-24
2021/12/09 00:31:38;;;;;;;3.33;0.75;;;;;;;13.75;56.36;95145.91;5033654;28;20035;-24
2021/12/09 00:34:04;;;;;;;3.05;0.82;;;;;;;13.79;56.18;95141.78;5034002;28;20029;-24
2021/12/09 00:36:41;;;;;;;3.90;0.68;;;;;;;13.84;56.41;95149.28;5033277;28;20083;-24
2021/12/09 00:39:09;;;;;;;3.13;0.80;;;;;;;13.71;56.31;95142.66;5033479;28;20021;-23
2021/12/09 00:41:35;;;;;;;4.38;1.05;;;;;;;13.77;56.17;95136.03;5033521;28;20529;-24
2021/12/09 00:44:01;;;;;;;4.25;0.90;;;;;;;13.79;56.11;95141.78;5033472;28;20037;-24
2021/12/09 00:46:27;;;;;;;1.98;0.55;;;;;;;13.83;55.87;95131.41;5033472;28;20125;-24
2021/12/09 00:48:52;;;;;;;5.68;1.00;;;;;;;13.80;55.91;95131.63;5033561;28;20020;-24
2021/12/09 00:51:18;;;;;;;4.07;0.85;;;;;;;13.73;56.02;95119.13;5033354;28;20036;-24
2021/12/09 00:53:44;;;;;;;4.38;0.70;;;;;;;13.72;55.79;95112.22;5033296;28;20030;-24
2021/12/09 00:56:12;;;;;;;4.63;1.08;;;;;;;13.77;55.57;95111.53;5033252;28;20053;-24
2021/12/09 00:58:38;;;;;;;4.35;0.82;;;;;;;13.82;55.12;95104.66;5031783;28;20045;-24
2021/12/09 01:01:06;;;;;;;3.17;0.70;;;;;;;13.79;55.54;95103.63;5033530;28;20041;-24
2021/12/09 01:03:33;;;;;;;3.65;0.75;;;;;;;13.75;55.59;95107.78;5033287;28;20029;-24
2021/12/09 01:05:59;;;;;;;7.18;0.90;;;;;;;13.72;55.71;95128.56;5033183;28;20028;-24
2021/12/09 01:08:24;;;;;;;4.22;0.88;;;;;;;13.80;55.27;95137.81;5033147;28;20104;-24
2021/12/09 01:10:50;;;;;;;4.95;1.02;;;;;;;13.82;55.08;95156.41;5033391;28;20018;-24
2021/12/09 01:13:16;;;;;;;3.83;1.02;;;;;;;13.77;54.91;95148.91;5033243;28;20029;-24
2021/12/09 01:15:41;;;;;;;2.45;0.73;;;;;;;13.78;54.93;95145.72;5033237;28;20053;-24
2021/12/09 01:18:07;;;;;;;4.60;0.90;;;;;;;13.84;54.76;95162.16;5033004;28;20041;-24
2021/12/09 01:20:33;;;;;;;5.05;1.35;;;;;;;13.92;54.41;95182.28;5032983;28;20022;-24
2021/12/09 01:22:59;;;;;;;4.78;1.02;;;;;;;13.95;54.26;95201.19;5033464;28;20411;-24
2021/12/09 01:25:26;;;;;;;4.45;0.90;;;;;;;13.94;54.27;95194.22;5033145;28;20386;-24
2021/12/09 01:27:55;;;;;;;5.00;0.90;;;;;;;13.84;54.93;95197.56;5033044;28;20021;-24
2021/12/09 01:30:25;;;;;;;4.65;0.80;;;;;;;13.71;54.68;95206.09;5033172;28;20467;-24
2021/12/09 01:32:54;;;;;;;2.53;0.77;;;;;;;13.24;55.66;95207.91;5033185;28;20452;-24
2021/12/09 01:35:23;;;;;;;5.03;0.88;;;;;;;13.38;56.09;95202.88;5032892;28;20048;-24
2021/12/09 01:37:53;;;;;;;2.65;0.73;;;;;;;13.32;56.09;95193.91;5033182;28;20117;-24
2021/12/09 01:40:19;;;;;;;2.88;0.80;;;;;;;13.64;54.85;95207.22;5033085;28;20025;-24
2021/12/09 01:42:45;;;;;;;3.33;0.60;;;;;;;13.18;56.23;95192.72;5032788;28;20048;-24
2021/12/09 01:45:11;;;;;;;4.65;0.60;;;;;;;13.20;55.95;95193.00;5032870;28;20025;-24
2021/12/09 01:47:36;;;;;;;0.60;0.25;;;;;;;12.69;57.19;95182.53;5033001;28;20025;-24
2021/12/09 01:50:03;;;;;;;1.50;0.40;;;;;;;12.73;56.84;95166.78;5036338;28;20029;-24
2021/12/09 01:52:29;;;;;;;3.92;0.60;;;;;;;13.19;55.77;95180.59;5036541;28;20067;-23
2021/12/09 01:54:54;;;;;;;0.75;0.30;;;;;;;12.94;55.96;95184.66;5036768;28;20061;-24
2021/12/09 01:57:20;;;;;;;1.60;0.30;;;;;;;12.42;57.49;95169.94;5036503;28;20053;-24
2021/12/09 01:59:47;;;;;;;0.50;0.20;;;;;;;12.31;57.56;95173.22;5035182;28;20080;-24
2021/12/09 02:02:13;;;;;;;1.73;0.47;;;;;;;11.58;57.80;95203.66;5036425;28;20080;-24
2021/12/09 02:04:38;;;;;;;1.55;0.30;;;;;;;12.13;57.91;95211.44;5036410;28;20017;-24
2021/12/09 02:07:04;;;;;;;1.00;0.30;;;;;;;12.34;57.81;95228.63;5036167;28;20033;-24
2021/12/09 02:09:29;;;;;;;0.82;0.30;;;;;;;12.70;56.02;95243.88;5036211;28;20017;-24
2021/12/09 02:11:55;;;;;;;0.10;0.10;;;;;;;12.17;57.74;95258.97;5036267;28;20026;-24
2021/12/09 02:14:20;;;;;;;0.38;0.17;;;;;;;12.68;56.11;95249.03;5032439;28;20074;-23
2021/12/09 02:16:46;;;;;;;0.77;0.20;;;;;;;13.29;54.02;95220.09;5034610;28;20352;-24
2021/12/09 02:19:13;;;;;;;0.93;0.65;;;;;;;13.48;53.52;95215.16;5036228;28;20029;-24
2021/12/09 02:21:39;;;;;;;2.15;0.20;;;;;;;13.39;53.90;95228.91;5036363;28;20091;-24
2021/12/09 02:24:14;;;;;;;1.13;0.40;;;;;;;13.46;53.70;95242.88;5036085;28;20460;-24
2021/12/09 02:26:42;;;;;;;0.10;0.10;;;;;;;13.48;53.15;95245.88;5036134;28;20087;-24
2021/12/09 02:29:10;;;;;;;0.22;0.13;;;;;;;13.38;53.13;95249.94;5035960;28;20053;-24
2021/12/09 02:31:36;;;;;;;0.40;0.20;;;;;;;13.02;54.18;95236.72;5035789;28;20542;-23
2021/12/09 02:34:03;;;;;;;0.40;0.20;;;;;;;13.32;53.74;95240.94;5035757;28;20033;-24
2021/12/09 02:36:36;;;;;;;0.45;0.22;;;;;;;13.40;53.33;95236.59;5035838;28;20029;-24
2021/12/09 02:39:10;;;;;;;0.10;0.10;;;;;;;12.97;54.33;95238.16;5035695;28;20164;-24
2021/12/09 02:41:36;;;;;;;0.22;0.20;;;;;;;13.43;53.27;95229.47;5035834;28;20044;-24
2021/12/09 02:44:05;;;;;;;1.38;0.20;;;;;;;13.37;53.12;95225.91;5035631;28;20026;-24
2021/12/09 02:46:36;;;;;;;0.82;0.20;;;;;;;13.48;52.91;95218.63;5034287;28;20032;-24
2021/12/09 02:49:03;;;;;;;0.60;0.20;;;;;;;13.27;52.71;95217.84;5035652;28;20038;-24
2021/12/09 02:51:29;;;;;;;0.20;0.10;;;;;;;13.56;52.29;95210.81;5034373;28;20029;-24
2021/12/09 02:53:54;;;;;;;1.15;0.40;;;;;;;13.64;52.09;95206.47;5035534;28;20086;-24
2021/12/09 02:56:20;;;;;;;0.50;0.20;;;;;;;13.69;51.91;95197.63;5035305;28;20021;-24
2021/12/09 02:58:46;;;;;;;0.85;0.13;;;;;;;13.74;51.54;95196.19;5034679;28;20045;-24
2021/12/09 03:01:15;;;;;;;0.50;0.13;;;;;;;13.79;51.38;95196.25;5035481;28;20057;-24
2021/12/09 03:03:51;;;;;;;0.38;0.10;;;;;;;13.76;51.29;95201.91;5035301;28;20052;-24
2021/12/09 03:06:19;;;;;;;0.20;0.20;;;;;;;13.81;51.44;95198.53;5035489;28;20029;-24
2021/12/09 03:08:44;;;;;;;0.47;0.20;;;;;;;13.78;51.40;95192.03;5035079;28;20021;-24
2021/12/09 03:11:15;;;;;;;0.25;0.10;;;;;;;13.78;51.36;95189.31;5035448;28;20043;-24
2021/12/09 03:13:42;;;;;;;0.35;0.20;;;;;;;13.74;51.52;95186.03;5035229;28;20032;-24
2021/12/09 03:16:09;;;;;;;0.10;0.10;;;;;;;13.83;51.05;95177.75;5035078;28;20037;-24
2021/12/09 03:18:57;;;;;;;0.30;0.17;;;;;;;13.79;51.24;95176.44;5035002;28;20029;-24
2021/12/09 03:21:35;;;;;;;0.60;0.25;;;;;;;13.74;51.28;95177.09;5035023;28;20384;-24
2021/12/09 03:24:03;;;;;;;0.80;0.15;;;;;;;13.81;51.09;95169.28;5034924;28;20120;-24
2021/12/09 03:26:34;;;;;;;0.35;0.17;;;;;;;13.82;50.78;95178.97;5034848;28;20084;-24
2021/12/09 03:29:11;;;;;;;1.17;0.20;;;;;;;13.81;50.73;95182.16;5035265;28;20077;-24
2021/12/09 03:31:38;;;;;;;0.10;0.10;;;;;;;13.73;50.83;95189.22;5033782;28;20388;-24
2021/12/09 03:34:05;;;;;;;0.15;0.10;;;;;;;13.79;50.90;95190.06;5034665;28;20025;-24
2021/12/09 03:36:30;;;;;;;0.28;0.10;;;;;;;13.73;50.89;95191.97;5034884;28;20061;-23
2021/12/09 03:38:58;;;;;;;0.22;0.10;;;;;;;13.75;50.31;95190.25;5034655;28;20060;-24
2021/12/09 03:41:24;;;;;;;0.30;0.15;;;;;;;13.75;50.39;95195.72;5034481;28;20029;-24
2021/12/09 03:43:50;;;;;;;0.65;0.10;;;;;;;13.78;50.61;95194.00;5034474;28;20025;-23
2021/12/09 03:46:16;;;;;;;0.30;0.20;;;;;;;13.83;50.20;95199.53;5034500;28;20171;-24
2021/12/09 03:48:41;;;;;;;0.98;0.10;;;;;;;13.85;50.28;95193.59;5034720;28;20025;-24
2021/12/09 03:51:07;;;;;;;0.98;0.25;;;;;;;13.79;50.20;95198.25;5034419;28;20109;-23
2021/12/09 03:53:32;;;;;;;1.25;0.30;;;;;;;13.81;50.51;95212.16;5034575;28;20048;-24
2021/12/09 03:55:58;;;;;;;0.43;0.17;;;;;;;13.83;50.25;95221.34;5034351;28;20028;-24
2021/12/09 03:58:24;;;;;;;0.32;0.10;;;;;;;13.80;50.38;95213.38;5033782;28;20395;-24
2021/12/09 04:00:50;;;;;;;0.30;0.20;;;;;;;13.81;50.27;95226.53;5034182;28;20033;-24
2021/12/09 04:03:17;;;;;;;0.20;0.20;;;;;;;13.74;50.63;95232.34;5034018;28;20022;-24
2021/12/09 04:05:43;;;;;;;0.52;0.10;;;;;;;13.77;50.04;95225.97;5034096;28;20025;-24
2021/12/09 04:08:09;;;;;;;0.60;0.22;;;;;;;13.89;50.22;95232.31;5034332;28;20025;-24
2021/12/09 04:10:35;;;;;;;0.98;0.30;;;;;;;13.82;50.10;95228.03;5033577;28;20112;-24
2021/12/09 04:13:00;;;;;;;1.20;0.30;;;;;;;13.80;50.11;95235.91;5033740;28;20123;-24
2021/12/09 04:15:26;;;;;;;0.22;0.10;;;;;;;13.82;49.98;95243.63;5033848;28;20471;-24
2021/12/09 04:17:52;;;;;;;1.73;0.20;;;;;;;13.81;50.08;95242.13;5034004;28;20039;-24
2021/12/09 04:20:18;;;;;;;3.50;0.50;;;;;;;13.83;50.04;95237.69;5033924;28;20036;-24
2021/12/09 04:22:48;;;;;;;0.73;0.30;;;;;;;13.83;50.19;95245.13;5033904;28;20040;-24
2021/12/09 04:25:19;;;;;;;1.25;0.40;;;;;;;13.90;49.81;95244.72;5033829;28;20076;-24
2021/12/09 04:27:46;;;;;;;0.57;0.40;;;;;;;13.79;50.57;95237.13;5033529;28;20034;-24
2021/12/09 04:30:14;;;;;;;0.50;0.30;;;;;;;13.84;50.20;95235.72;5033769;28;20056;-24
2021/12/09 04:32:40;;;;;;;0.38;0.30;;;;;;;13.92;49.94;95243.00;5034043;28;20383;-24
2021/12/09 04:35:11;;;;;;;0.35;0.20;;;;;;;13.82;50.04;95240.91;5033590;28;20025;-24
2021/12/09 04:37:36;;;;;;;0.75;0.30;;;;;;;13.87;50.15;95246.41;5033805;28;20029;-24
2021/12/09 04:40:04;;;;;;;0.63;0.40;;;;;;;13.82;50.43;95255.28;5032265;28;20078;-24
2021/12/09 04:42:29;;;;;;;1.08;0.50;;;;;;;13.88;49.81;95255.31;5033805;28;20466;-24
2021/12/09 04:44:55;;;;;;;0.70;0.50;;;;;;;13.84;49.90;95262.97;5033602;28;20074;-23
2021/12/09 04:47:21;;;;;;;0.75;0.40;;;;;;;13.77;50.21;95261.38;5033763;28;20048;-24
2021/12/09 04:49:47;;;;;;;0.82;0.32;;;;;;;13.82;49.98;95254.53;5033345;28;20025;-24
2021/12/09 04:52:12;;;;;;;0.52;0.40;;;;;;;13.86;49.97;95263.97;5033392;28;20467;-24
2021/12/09 04:54:41;;;;;;;0.68;0.40;;;;;;;13.82;50.20;95263.44;5033299;28;20033;-23
2021/12/09 04:57:10;;;;;;;2.38;0.50;;;;;;;13.85;49.83;95261.72;5033117;28;20391;-24
2021/12/09 04:59:36;;;;;;;2.42;0.50;;;;;;;13.85;50.07;95253.53;5033201;28;20060;-24
2021/12/09 05:02:02;;;;;;;1.00;0.60;;;;;;;13.82;50.08;95255.28;5033239;28;20033;-24
2021/12/09 05:04:28;;;;;;;0.70;0.40;;;;;;;13.82;50.04;95241.66;5033168;28;20056;-23
2021/12/09 05:06:54;;;;;;;0.90;0.55;;;;;;;13.74;50.22;95242.50;5033632;28;20080;-24
2021/12/09 05:09:20;;;;;;;1.40;0.43;;;;;;;13.76;50.10;95243.53;5033318;28;20032;-24
2021/12/09 05:14:12;;;;;;;0.50;0.32;;;;;;;13.76;50.01;95235.34;5033452;28;20076;-24
2021/12/09 05:16:37;;;;;;;0.60;0.40;;;;;;;13.80;49.88;95235.91;5033218;28;20048;-24
2021/12/09 05:19:04;;;;;;;0.60;0.52;;;;;;;13.77;49.98;95230.66;5033242;28;20033;-24
2021/12/09 05:21:36;;;;;;;0.80;0.40;;;;;;;13.75;50.20;95233.84;5033307;28;20025;-24
2021/12/09 05:24:04;;;;;;;0.65;0.38;;;;;;;13.76;49.80;95237.34;5036947;28;20034;-24
2021/12/09 05:26:36;;;;;;;0.25;0.20;;;;;;;13.79;49.89;95239.88;5037288;28;20411;-24
2021/12/09 05:29:01;;;;;;;0.82;0.40;;;;;;;13.82;49.76;95247.09;5037138;28;20052;-24
2021/12/09 05:34:14;;;;;;;1.25;0.65;;;;;;;13.81;49.83;95240.16;5037606;28;20036;-24
2021/12/09 05:36:39;;;;;;;1.38;0.40;;;;;;;13.88;49.44;95239.72;5036959;28;20030;-24
2021/12/09 05:39:09;;;;;;;1.60;0.38;;;;;;;13.84;49.50;95241.91;5036994;28;20021;-24
2021/12/09 05:41:34;;;;;;;1.20;0.40;;;;;;;13.85;49.37;95240.66;5035548;28;20025;-24
2021/12/09 05:44:01;;;;;;;0.82;0.60;;;;;;;13.86;49.55;95246.88;5036928;28;20105;-24
2021/12/09 05:46:27;;;;;;;1.50;0.88;;;;;;;13.81;49.36;95251.03;5036645;28;20031;-24
2021/12/09 05:48:53;;;;;;;1.35;0.88;;;;;;;13.80;49.52;95252.28;5021136;28;20018;-24
2021/12/09 05:51:19;;;;;;;1.00;0.90;;;;;;;13.83;49.39;95258.75;5030133;28;20401;-24
2021/12/09 05:53:45;;;;;;;1.02;0.90;;;;;;;13.74;49.30;95273.22;5014763;28;20036;-23
2021/12/09 05:56:10;;;;;;;1.38;1.00;;;;;;;13.79;49.28;95271.81;5014645;28;20026;-24
2021/12/09 05:58:35;;;;;;;1.00;0.90;;;;;;;13.79;49.14;95269.09;5014625;28;20052;-24
2021/12/09 06:01:01;;;;;;;1.27;1.10;;;;;;;13.79;49.15;95264.38;5014642;28;20450;-24
2021/12/09 06:03:26;;;;;;;1.95;0.90;;;;;;;13.80;49.18;95265.88;5013507;28;20468;-24
2021/12/09 06:05:52;;;;;;;2.75;1.30;;;;;;;13.79;49.44;95267.13;5014845;28;20043;-24
2021/12/09 06:08:19;;;;;;;4.50;1.70;;;;;;;13.78;48.76;95271.06;5014558;28;20393;-23
2021/12/09 06:10:45;;;;;;;3.05;1.42;;;;;;;13.87;48.88;95278.34;5014746;28;20033;-23
2021/12/09 06:13:11;;;;;;;3.65;1.90;;;;;;;13.80;49.13;95273.31;5014423;28;20104;-24
2021/12/09 06:15:37;;;;;;;3.80;1.65;;;;;;;13.79;48.70;95272.56;5014545;28;20057;-24
2021/12/09 06:18:03;;;;;;;5.25;2.30;;;;;;;13.77;48.66;95280.47;5014353;28;20030;-24
2021/12/09 06:20:28;;;;;;;8.70;3.00;;;;;;;13.78;48.75;95281.97;5014677;28;20052;-24
2021/12/09 06:22:54;;;;;;;14.35;4.40;;;;;;;13.75;48.57;95280.19;5014245;28;20471;-23
2021/12/09 06:25:21;;;;;;;23.50;6.55;;;;;;;13.75;48.39;95266.56;5027964;28;20025;-24
2021/12/09 06:27:48;;;;;;;14.88;5.30;;;;;;;13.75;48.53;95266.56;5034154;28;20029;-24
2021/12/09 06:30:15;;;;;;;22.27;6.38;;;;;;;13.83;48.51;95261.47;5033975;28;20056;-23
2021/12/09 06:32:41;;;;;;;22.15;6.78;;;;;;;13.83;48.55;95267.69;5034039;28;20094;-24
2021/12/09 06:35:08;;;;;;;22.90;7.35;;;;;;;13.83;48.49;95272.38;5032870;28;20083;-24
2021/12/09 06:37:38;;;;;;;20.33;6.25;;;;;;;13.81;48.28;95275.56;5033787;28;20033;-24
2021/12/09 06:40:04;;;;;;;27.80;8.10;;;;;;;13.76;48.53;95273.50;5032395;28;20025;-24
2021/12/09 06:42:29;;;;;;;24.45;6.57;;;;;;;13.77;48.72;95257.91;5033785;28;20036;-24
2021/12/09 06:44:55;;;;;;;22.70;7.50;;;;;;;13.78;48.16;95259.41;5033623;28;20401;-24
2021/12/09 06:47:20;;;;;;;17.65;6.60;;;;;;;13.83;48.33;95258.75;5033333;28;20021;-23
2021/12/09 06:49:46;;;;;;;19.52;7.15;;;;;;;13.79;48.08;95256.22;5033594;28;20379;-24
2021/12/09 06:52:11;;;;;;;19.83;5.70;;;;;;;13.75;48.51;95255.66;5033731;28;20102;-24
2021/12/09 06:54:37;;;;;;;11.25;4.75;;;;;;;13.76;48.43;95253.69;5033583;28;20112;-24
2021/12/09 06:57:02;;;;;;;14.75;5.65;;;;;;;13.75;48.16;95255.66;5033352;28;20040;-24
2021/12/09 06:59:28;;;;;;;12.25;4.20;;;;;;;13.77;48.04;95261.38;5032793;28;20046;-23
2021/12/09 07:01:53;;;;;;;12.68;4.25;;;;;;;13.72;48.23;95267.53;5031408;28;20021;-23
2021/12/09 07:04:19;;;;;;;10.63;3.80;;;;;;;13.81;48.05;95267.41;5031996;28;20057;-23
2021/12/09 07:06:44;;;;;;;11.23;3.95;;;;;;;13.73;48.30;95277.16;5033099;28;20029;-24
2021/12/09 07:09:10;;;;;;;7.35;3.17;;;;;;;13.77;48.04;95277.72;5033260;28;20025;-23
2021/12/09 07:11:36;;;;;;;9.73;3.47;;;;;;;13.80;48.01;95278.75;5032855;28;20029;-24
2021/12/09 07:14:02;;;;;;;7.22;3.00;;;;;;;13.80;48.12;95284.22;5033116;28;20029;-23
2021/12/09 07:16:28;;;;;;;8.30;3.15;;;;;;;13.81;48.07;95291.16;5032979;28;20467;-24
2021/12/09 07:18:53;;;;;;;6.63;2.78;;;;;;;13.81;47.91;95294.66;5032940;28;20029;-23
2021/12/09 07:21:19;;;;;;;7.80;2.67;;;;;;;13.76;48.01;95295.31;5033184;28;20061;-23
2021/12/09 07:23:44;;;;;;;6.03;2.42;;;;;;;13.78;47.86;95292.09;5032639;28;20104;-23
2021/12/09 07:26:10;;;;;;;4.22;1.95;;;;;;;13.73;47.99;95293.53;5033057;28;20034;-23
2021/12/09 07:28:35;;;;;;;5.00;2.15;;;;;;;13.79;47.98;95299.06;5032916;28;20025;-24
2021/12/09 07:31:02;;;;;;;5.63;1.80;;;;;;;13.78;48.16;95292.88;5032736;28;20042;-24
2021/12/09 07:33:28;;;;;;;4.55;1.75;;;;;;;13.77;48.00;95296.06;5032788;28;20026;-23
2021/12/09 07:35:53;;;;;;;3.97;1.60;;;;;;;13.73;48.06;95293.53;5032499;28;20450;-23
2021/12/09 07:38:19;;;;;;;3.13;1.50;;;;;;;13.72;48.21;95289.31;5032546;28;20040;-24
2021/12/09 07:40:44;;;;;;;4.50;1.70;;;;;;;13.75;48.45;95301.22;5032683;28;20032;-23
2021/12/09 07:43:10;;;;;;;4.47;1.60;;;;;;;13.80;48.15;95295.88;5032362;28;20535;-23
2021/12/09 07:45:35;;;;;;;5.40;2.53;;;;;;;13.78;48.37;95298.31;5032075;28;20029;-24
2021/12/09 07:48:01;;;;;;;5.65;2.10;;;;;;;13.72;48.25;95300.22;5032372;28;20403;-24
2021/12/09 07:50:31;;;;;;;4.68;2.13;;;;;;;13.73;48.59;95295.50;5032222;28;20052;-23
2021/12/09 07:52:59;;;;;;;6.50;2.63;;;;;;;13.74;48.31;95297.75;5032504;28;20105;-24
2021/12/09 07:55:25;;;;;;;5.15;2.65;;;;;;;13.76;48.60;95303.47;5032463;28;20028;-24
2021/12/09 07:57:51;;;;;;;8.45;3.17;;;;;;;13.76;48.52;95300.00;5030677;28;20480;-24
2021/12/09 08:00:25;;;;;;;5.10;2.97;;;;;;;13.76;48.26;95306.19;5031598;28;20029;-24
2021/12/09 08:02:52;;;;;;;6.70;2.75;;;;;;;13.72;48.56;95304.91;5030238;28;20028;-23
2021/12/09 08:05:19;;;;;;;6.10;2.90;;;;;;;13.78;48.53;95309.22;5014236;28;20033;-24
2021/12/09 08:07:45;;;;;;;5.63;2.90;;;;;;;13.75;48.62;95303.94;5013199;28;20076;-24
2021/12/09 08:10:13;;;;;;;5.60;2.80;;;;;;;13.77;48.62;95301.50;5014160;28;20498;-24
2021/12/09 08:12:39;;;;;;;5.18;2.60;;;;;;;13.72;48.42;95292.06;5014199;28;20029;-24
2021/12/09 08:15:08;;;;;;;4.80;2.30;;;;;;;13.70;48.64;95291.00;5014176;28;20104;-24
2021/12/09 08:20:07;;;;;;;4.28;2.38;;;;;;;13.69;48.74;95293.00;5014078;28;20049;-24
2021/12/09 08:22:33;;;;;;;3.72;1.83;;;;;;;13.66;48.83;95305.56;5014205;28;20373;-24
2021/12/09 08:24:59;;;;;;;3.72;2.10;;;;;;;13.76;48.74;95300.75;5013995;28;20076;-24
2021/12/09 08:27:26;;;;;;;3.10;2.15;;;;;;;13.77;48.47;95304.22;5013899;28;20360;-24
2021/12/09 08:29:51;;;;;;;3.17;2.00;;;;;;;13.72;48.72;95296.75;5014257;28;20074;-24
2021/12/09 08:32:17;;;;;;;3.40;2.10;;;;;;;13.78;48.40;95303.75;5014127;28;20411;-24
2021/12/09 08:34:43;;;;;;;3.78;1.90;;;;;;;13.76;48.75;95311.66;5014003;28;20364;-24
2021/12/09 08:37:08;;;;;;;3.88;1.80;;;;;;;13.82;48.48;95319.91;5013712;28;20042;-24
2021/12/09 08:39:34;;;;;;;13.25;6.93;;;;;;;12.24;53.11;95325.81;5012774;28;20026;-25
2021/12/09 08:41:59;;;;;;;11.85;5.45;;;;;;;11.73;55.30;95320.50;5044283;28;20030;-25
2021/12/09 08:44:25;;;;;;;13.05;9.02;;;;;;;11.63;55.54;95317.06;5013725;28;20026;-24
2021/12/09 08:46:51;;;;;;;12.52;8.70;;;;;;;12.43;53.26;95321.00;5013845;28;20488;-24
2021/12/09 08:49:17;;;;;;;15.65;8.73;;;;;;;12.84;51.61;95322.03;5013792;28;20021;-24
2021/12/09 08:51:43;;;;;;;12.55;8.85;;;;;;;13.21;50.54;95317.00;5013442;28;20025;-24
2021/12/09 08:54:08;;;;;;;11.32;7.32;;;;;;;13.36;50.33;95327.88;5012491;28;20384;-24
2021/12/09 08:56:36;;;;;;;13.63;8.48;;;;;;;13.45;50.00;95333.22;5013294;28;20109;-24
2021/12/09 08:59:04;;;;;;;9.52;7.15;;;;;;;13.54;49.65;95336.59;5025664;28;20511;-24
2021/12/09 09:01:29;;;;;;;10.25;6.65;;;;;;;13.46;49.65;95340.19;5033036;28;20028;-24
2021/12/09 09:03:55;;;;;;;10.35;6.97;;;;;;;13.54;49.76;95339.31;5033202;28;20022;-24
2021/12/09 09:06:20;;;;;;;9.35;6.07;;;;;;;13.57;49.44;95340.34;5033320;28;20096;-24
2021/12/09 09:08:46;;;;;;;8.93;5.72;;;;;;;13.47;49.79;95341.69;5033159;28;20464;-24
2021/12/09 09:11:11;;;;;;;7.50;4.95;;;;;;;13.54;49.84;95341.28;5032997;28;20045;-24
2021/12/09 09:13:37;;;;;;;7.20;4.55;;;;;;;13.59;49.82;95344.13;5033132;28;20032;-24
2021/12/09 09:16:03;;;;;;;6.68;4.38;;;;;;;13.59;49.85;95346.84;5033149;28;20025;-24
2021/12/09 09:18:28;;;;;;;6.40;4.40;;;;;;;13.62;49.67;95350.56;5033059;28;20018;-24
2021/12/09 09:20:54;;;;;;;8.02;4.55;;;;;;;13.65;49.51;95349.63;5033312;28;20029;-24
2021/12/09 09:23:21;;;;;;;7.72;4.22;;;;;;;13.60;49.78;95355.75;5032838;28;20100;-24
2021/12/09 09:25:47;;;;;;;5.70;4.10;;;;;;;13.64;49.77;95353.59;5031773;28;20029;-24
2021/12/09 09:28:12;;;;;;;5.38;4.03;;;;;;;13.52;50.36;95355.38;5032679;28;20473;-24
2021/12/09 09:30:43;;;;;;;5.47;3.53;;;;;;;13.60;49.90;95355.75;5033062;28;20018;-24
2021/12/09 09:33:13;;;;;;;4.80;3.60;;;;;;;13.70;49.86;95348.22;5032572;28;20033;-24
2021/12/09 09:35:40;;;;;;;3.60;2.70;;;;;;;13.69;49.79;95355.66;5031460;28;20075;-24
2021/12/09 09:38:06;;;;;;;4.43;3.15;;;;;;;13.69;50.17;95355.66;5032774;28;20026;-24
2021/12/09 09:40:41;;;;;;;4.85;3.22;;;;;;;13.68;50.34;95358.84;5032933;28;20068;-24
2021/12/09 09:45:53;;;;;;;7.85;4.32;;;;;;;13.72;49.75;95357.44;5033024;28;20565;-24
2021/12/09 09:48:19;;;;;;;7.38;4.22;;;;;;;13.70;49.80;95351.72;5033232;28;20386;-24
2021/12/09 09:50:45;;;;;;;6.20;3.83;;;;;;;13.68;50.00;95350.69;5032959;28;20029;-24
2021/12/09 09:53:11;;;;;;;6.95;4.43;;;;;;;13.66;50.13;95342.97;5033283;28;20037;-24
2021/12/09 09:55:37;;;;;;;6.63;4.50;;;;;;;13.74;50.12;95343.31;5032753;28;20025;-24
2021/12/09 09:58:03;;;;;;;5.40;3.75;;;;;;;13.71;50.02;95333.38;5032782;28;20081;-25
2021/12/09 10:00:29;;;;;;;7.43;4.43;;;;;;;13.70;50.35;95342.78;5032812;28;20387;-24
2021/12/09 10:02:55;;;;;;;7.43;4.80;;;;;;;13.70;50.17;95340.06;5025160;28;20018;-24
2021/12/09 10:05:28;;;;;;;7.65;5.18;;;;;;;13.78;50.26;95344.63;5010918;28;20033;-24
2021/12/09 10:07:55;;;;;;;7.07;4.38;;;;;;;13.75;50.41;95347.53;5012597;28;20010;-24
2021/12/09 10:10:23;;;;;;;6.28;3.85;;;;;;;13.76;50.23;95349.81;5015010;28;20412;-24
2021/12/09 10:12:58;;;;;;;6.25;3.70;;;;;;;13.78;50.34;95352.81;5016606;28;20026;-24
2021/12/09 10:15:36;;;;;;;6.18;3.65;;;;;;;13.73;50.62;95348.03;5016350;28;20058;-24
2021/12/09 10:18:01;;;;;;;4.32;3.35;;;;;;;13.71;50.35;95342.31;5016438;28;20465;-24
2021/12/09 10:20:50;;;;;;;6.07;3.92;;;;;;;13.71;50.80;95341.56;5016270;28;20037;-24
2021/12/09 10:23:26;;;;;;;6.63;4.15;;;;;;;13.75;50.41;95337.41;5016330;28;20025;-24
2021/12/09 10:26:10;;;;;;;5.40;3.30;;;;;;;13.78;50.34;95324.81;5016175;28;20079;-24
2021/12/09 10:28:36;;;;;;;6.70;3.55;;;;;;;13.72;50.45;95324.00;5016124;28;20072;-24
2021/12/09 10:31:12;;;;;;;5.13;3.33;;;;;;;13.76;50.57;95322.56;5016320;28;20030;-24
2021/12/09 10:34:13;;;;;;;4.40;3.05;;;;;;;13.75;50.70;95318.31;5015878;28;20049;-24
2021/12/09 10:36:40;;;;;;;3.78;2.60;;;;;;;13.68;51.14;95316.00;5016138;28;20080;-24
2021/12/09 10:39:31;;;;;;;3.63;3.00;;;;;;;13.76;50.98;95306.19;5016103;28;20029;-24
2021/12/09 10:42:02;;;;;;;3.92;2.72;;;;;;;13.78;50.73;95306.50;5016273;28;20026;-24
2021/12/09 10:44:40;;;;;;;5.32;2.78;;;;;;;13.81;50.50;95311.00;5016159;28;20068;-24
2021/12/09 10:47:12;;;;;;;3.75;2.72;;;;;;;13.80;50.64;95306.78;5015666;28;20121;-24
2021/12/09 10:50:05;;;;;;;6.30;2.90;;;;;;;13.83;50.66;95311.28;5016037;28;20024;-24
2021/12/09 10:52:43;;;;;;;3.50;2.65;;;;;;;13.87;50.57;95313.78;5015843;28;20440;-24
2021/12/09 10:55:42;;;;;;;5.32;2.58;;;;;;;13.80;50.88;95300.56;5015434;28;20036;-25
2021/12/09 10:58:14;;;;;;;4.30;2.30;;;;;;;13.81;50.67;95302.81;5015168;28;20116;-24
2021/12/09 11:00:42;;;;;;;3.05;2.42;;;;;;;13.73;51.15;95298.97;5015720;28;20057;-24
2021/12/09 11:03:22;;;;;;;3.75;2.30;;;;;;;13.71;51.25;95292.50;5015906;28;20088;-24
2021/12/09 11:05:51;;;;;;;3.35;2.20;;;;;;;13.75;51.03;95296.53;5015677;28;20021;-24
2021/12/09 11:08:21;;;;;;;3.58;2.30;;;;;;;13.77;50.78;95302.25;5015498;28;20026;-24
2021/12/09 11:10:57;;;;;;;5.00;2.35;;;;;;;13.71;51.30;95295.25;5015324;28;20025;-24
2021/12/09 11:13:23;;;;;;;2.78;2.00;;;;;;;13.77;50.98;95298.78;5015350;28;20032;-24
2021/12/09 11:15:57;;;;;;;3.90;2.45;;;;;;;13.65;51.69;95300.59;5013944;28;20476;-24
2021/12/09 11:18:34;;;;;;;4.40;2.30;;;;;;;13.49;51.86;95299.13;5015222;28;20040;-24
2021/12/09 11:21:02;;;;;;;2.20;1.90;;;;;;;13.24;52.57;95305.91;5014900;28;20030;-24
2021/12/09 11:23:32;;;;;;;6.20;2.20;;;;;;;13.46;51.56;95278.28;5015049;28;20526;-24
2021/12/09 11:26:19;;;;;;;3.30;2.10;;;;;;;13.60;51.52;95271.28;5015540;28;20030;-24
2021/12/09 11:28:56;;;;;;;1.90;1.50;;;;;;;13.64;51.27;95266.41;5014949;28;20425;-24
2021/12/09 11:31:24;;;;;;;2.35;1.50;;;;;;;13.63;51.41;95278.53;5015049;28;20030;-24
2021/12/09 11:33:56;;;;;;;2.72;1.55;;;;;;;13.65;51.01;95271.38;5014996;28;20022;-24
2021/12/09 11:36:43;;;;;;;2.97;1.80;;;;;;;13.36;51.83;95287.03;5014901;28;20100;-24
2021/12/09 11:39:19;;;;;;;2.58;1.40;;;;;;;12.91;52.94;95294.44;5015066;28;20035;-24
2021/12/09 11:41:45;;;;;;;2.65;1.30;;;;;;;12.67;51.89;95288.31;5014779;28;20026;-24
2021/12/09 11:44:11;;;;;;;2.80;1.38;;;;;;;12.74;52.75;95285.22;5013711;28;20479;-24
2021/12/09 11:46:41;;;;;;;2.53;1.48;;;;;;;12.98;52.25;95293.34;5014909;28;20061;-24